sensor_id;sensor_type;location;lat;lon;timestamp;P1;durP1;ratioP1;P2;durP2;ratioP2
11135;SDS011;5622;50.840;4.948;2022-12-07T00:00:20;25.57;;;15.63;;
11135;SDS011;5622;50.840;4.948;2022-12-07T00:02:49;25.03;;;16.00;;
11135;SDS011;5622;50.840;4.948;2022-12-07T00:05:16;24.43;;;15.97;;
11135;SDS011;5622;50.840;4.948;2022-12-07T00:07:43;20.77;;;14.70;;
11135;SDS011;5622;50.840;4.948;2022-12-07T00:10:10;21.13;;;15.43;;
11135;SDS011;5622;50.840;4.948;2022-12-07T00:12:37;21.33;;;15.43;;
11135;SDS011;5622;50.840;4.948;2022-12-07T00:15:05;24.80;;;16.93;;
11135;SDS011;5622;50.840;4.948;2022-12-07T00:17:32;23.27;;;16.57;;
11135;SDS011;5622;50.840;4.948;2022-12-07T00:20:01;23.70;;;16.20;;
11135;SDS011;5622;50.840;4.948;2022-12-07T00:22:29;24.83;;;15.43;;
11135;SDS011;5622;50.840;4.948;2022-12-07T00:24:56;21.50;;;15.23;;
11135;SDS011;5622;50.840;4.948;2022-12-07T00:27:23;25.10;;;16.93;;
11135;SDS011;5622;50.840;4.948;2022-12-07T00:29:50;20.13;;;14.57;;
11135;SDS011;5622;50.840;4.948;2022-12-07T00:32:17;25.53;;;15.73;;
11135;SDS011;5622;50.840;4.948;2022-12-07T00:34:44;20.57;;;14.97;;
11135;SDS011;5622;50.840;4.948;2022-12-07T00:37:13;20.67;;;16.07;;
11135;SDS011;5622;50.840;4.948;2022-12-07T00:39:40;20.33;;;14.83;;
11135;SDS011;5622;50.840;4.948;2022-12-07T00:42:07;21.20;;;14.33;;
11135;SDS011;5622;50.840;4.948;2022-12-07T00:44:34;21.10;;;14.80;;
11135;SDS011;5622;50.840;4.948;2022-12-07T00:47:01;22.20;;;15.33;;
11135;SDS011;5622;50.840;4.948;2022-12-07T00:49:28;22.03;;;15.60;;
11135;SDS011;5622;50.840;4.948;2022-12-07T00:51:55;21.83;;;14.77;;
11135;SDS011;5622;50.840;4.948;2022-12-07T00:54:24;23.07;;;15.90;;
11135;SDS011;5622;50.840;4.948;2022-12-07T00:56:51;22.97;;;15.40;;
11135;SDS011;5622;50.840;4.948;2022-12-07T00:59:18;24.47;;;16.67;;
11135;SDS011;5622;50.840;4.948;2022-12-07T01:01:45;25.13;;;17.57;;
11135;SDS011;5622;50.840;4.948;2022-12-07T01:04:12;25.00;;;15.67;;
11135;SDS011;5622;50.840;4.948;2022-12-07T01:06:39;22.73;;;15.73;;
11135;SDS011;5622;50.840;4.948;2022-12-07T01:09:06;23.77;;;16.47;;
11135;SDS011;5622;50.840;4.948;2022-12-07T01:11:35;24.60;;;16.23;;
11135;SDS011;5622;50.840;4.948;2022-12-07T01:14:02;21.27;;;16.30;;
11135;SDS011;5622;50.840;4.948;2022-12-07T01:16:30;24.70;;;16.50;;
11135;SDS011;5622;50.840;4.948;2022-12-07T01:18:58;26.67;;;16.83;;
11135;SDS011;5622;50.840;4.948;2022-12-07T01:21:26;21.77;;;15.20;;
11135;SDS011;5622;50.840;4.948;2022-12-07T01:23:54;25.70;;;17.10;;
11135;SDS011;5622;50.840;4.948;2022-12-07T01:26:23;26.17;;;16.80;;
11135;SDS011;5622;50.840;4.948;2022-12-07T01:28:53;23.00;;;16.57;;
11135;SDS011;5622;50.840;4.948;2022-12-07T01:31:23;25.20;;;16.83;;
11135;SDS011;5622;50.840;4.948;2022-12-07T01:33:52;24.97;;;16.60;;
11135;SDS011;5622;50.840;4.948;2022-12-07T01:36:21;22.80;;;16.40;;
11135;SDS011;5622;50.840;4.948;2022-12-07T01:38:50;30.93;;;18.00;;
11135;SDS011;5622;50.840;4.948;2022-12-07T01:41:18;24.80;;;17.57;;
11135;SDS011;5622;50.840;4.948;2022-12-07T01:46:42;24.77;;;17.17;;
11135;SDS011;5622;50.840;4.948;2022-12-07T01:49:12;26.17;;;18.37;;
11135;SDS011;5622;50.840;4.948;2022-12-07T01:51:44;24.37;;;16.57;;
11135;SDS011;5622;50.840;4.948;2022-12-07T01:54:13;29.50;;;17.37;;
11135;SDS011;5622;50.840;4.948;2022-12-07T01:56:42;24.77;;;17.73;;
11135;SDS011;5622;50.840;4.948;2022-12-07T01:59:15;23.27;;;16.50;;
11135;SDS011;5622;50.840;4.948;2022-12-07T02:01:44;29.43;;;18.10;;
11135;SDS011;5622;50.840;4.948;2022-12-07T02:04:11;27.10;;;17.77;;
11135;SDS011;5622;50.840;4.948;2022-12-07T02:06:38;28.03;;;17.93;;
11135;SDS011;5622;50.840;4.948;2022-12-07T02:09:07;23.23;;;16.87;;
11135;SDS011;5622;50.840;4.948;2022-12-07T02:11:35;25.57;;;18.10;;
11135;SDS011;5622;50.840;4.948;2022-12-07T02:14:02;24.33;;;16.73;;
11135;SDS011;5622;50.840;4.948;2022-12-07T02:16:31;24.77;;;17.17;;
11135;SDS011;5622;50.840;4.948;2022-12-07T02:19:22;28.57;;;20.00;;
11135;SDS011;5622;50.840;4.948;2022-12-07T02:22:05;27.17;;;18.50;;
11135;SDS011;5622;50.840;4.948;2022-12-07T02:24:46;26.83;;;18.03;;
11135;SDS011;5622;50.840;4.948;2022-12-07T02:27:33;27.17;;;19.53;;
11135;SDS011;5622;50.840;4.948;2022-12-07T02:30:06;25.53;;;18.37;;
11135;SDS011;5622;50.840;4.948;2022-12-07T02:32:40;27.73;;;19.47;;
11135;SDS011;5622;50.840;4.948;2022-12-07T02:35:13;26.83;;;17.97;;
11135;SDS011;5622;50.840;4.948;2022-12-07T02:37:47;29.90;;;20.43;;
11135;SDS011;5622;50.840;4.948;2022-12-07T02:40:26;27.80;;;19.47;;
11135;SDS011;5622;50.840;4.948;2022-12-07T02:42:58;28.87;;;20.33;;
11135;SDS011;5622;50.840;4.948;2022-12-07T02:45:32;26.13;;;19.07;;
11135;SDS011;5622;50.840;4.948;2022-12-07T02:48:02;28.57;;;20.10;;
11135;SDS011;5622;50.840;4.948;2022-12-07T02:50:34;30.13;;;19.07;;
11135;SDS011;5622;50.840;4.948;2022-12-07T02:53:01;31.40;;;19.73;;
11135;SDS011;5622;50.840;4.948;2022-12-07T02:55:30;28.37;;;20.37;;
11135;SDS011;5622;50.840;4.948;2022-12-07T02:58:08;26.20;;;19.50;;
11135;SDS011;5622;50.840;4.948;2022-12-07T03:00:55;28.87;;;19.97;;
11135;SDS011;5622;50.840;4.948;2022-12-07T03:03:28;27.03;;;19.07;;
11135;SDS011;5622;50.840;4.948;2022-12-07T03:06:00;29.37;;;19.60;;
11135;SDS011;5622;50.840;4.948;2022-12-07T03:08:37;29.57;;;19.30;;
11135;SDS011;5622;50.840;4.948;2022-12-07T03:11:12;23.77;;;17.97;;
11135;SDS011;5622;50.840;4.948;2022-12-07T03:13:42;27.97;;;20.30;;
11135;SDS011;5622;50.840;4.948;2022-12-07T03:16:15;29.23;;;18.47;;
11135;SDS011;5622;50.840;4.948;2022-12-07T03:18:48;31.20;;;20.70;;
11135;SDS011;5622;50.840;4.948;2022-12-07T03:21:20;29.17;;;19.67;;
11135;SDS011;5622;50.840;4.948;2022-12-07T03:23:52;25.83;;;19.37;;
11135;SDS011;5622;50.840;4.948;2022-12-07T03:26:23;27.73;;;19.60;;
11135;SDS011;5622;50.840;4.948;2022-12-07T03:28:59;26.70;;;19.83;;
11135;SDS011;5622;50.840;4.948;2022-12-07T03:31:31;29.87;;;20.53;;
11135;SDS011;5622;50.840;4.948;2022-12-07T03:34:02;26.57;;;20.17;;
11135;SDS011;5622;50.840;4.948;2022-12-07T03:36:35;25.97;;;19.27;;
11135;SDS011;5622;50.840;4.948;2022-12-07T03:39:11;33.73;;;20.30;;
11135;SDS011;5622;50.840;4.948;2022-12-07T03:41:43;30.97;;;20.23;;
11135;SDS011;5622;50.840;4.948;2022-12-07T03:44:12;29.07;;;20.07;;
11135;SDS011;5622;50.840;4.948;2022-12-07T03:46:43;28.47;;;19.30;;
11135;SDS011;5622;50.840;4.948;2022-12-07T03:49:17;25.37;;;18.40;;
11135;SDS011;5622;50.840;4.948;2022-12-07T03:51:51;33.33;;;20.43;;
11135;SDS011;5622;50.840;4.948;2022-12-07T03:54:23;31.53;;;21.13;;
11135;SDS011;5622;50.840;4.948;2022-12-07T03:56:54;32.23;;;21.70;;
11135;SDS011;5622;50.840;4.948;2022-12-07T03:59:23;28.73;;;19.93;;
11135;SDS011;5622;50.840;4.948;2022-12-07T04:01:53;26.93;;;18.73;;
11135;SDS011;5622;50.840;4.948;2022-12-07T04:04:21;29.87;;;19.90;;
11135;SDS011;5622;50.840;4.948;2022-12-07T04:06:49;25.27;;;19.03;;
11135;SDS011;5622;50.840;4.948;2022-12-07T04:09:16;30.33;;;19.73;;
11135;SDS011;5622;50.840;4.948;2022-12-07T04:11:44;26.87;;;18.80;;
11135;SDS011;5622;50.840;4.948;2022-12-07T04:14:11;34.90;;;20.57;;
11135;SDS011;5622;50.840;4.948;2022-12-07T04:16:47;27.50;;;19.03;;
11135;SDS011;5622;50.840;4.948;2022-12-07T04:19:17;27.40;;;19.77;;
11135;SDS011;5622;50.840;4.948;2022-12-07T04:21:45;31.07;;;19.57;;
11135;SDS011;5622;50.840;4.948;2022-12-07T04:24:13;28.27;;;19.57;;
11135;SDS011;5622;50.840;4.948;2022-12-07T04:26:41;28.57;;;18.77;;
11135;SDS011;5622;50.840;4.948;2022-12-07T04:29:08;28.47;;;19.17;;
11135;SDS011;5622;50.840;4.948;2022-12-07T04:31:36;32.60;;;20.97;;
11135;SDS011;5622;50.840;4.948;2022-12-07T04:34:04;27.03;;;19.27;;
11135;SDS011;5622;50.840;4.948;2022-12-07T04:36:33;26.67;;;18.77;;
11135;SDS011;5622;50.840;4.948;2022-12-07T04:39:01;24.37;;;17.60;;
11135;SDS011;5622;50.840;4.948;2022-12-07T04:41:30;26.00;;;18.03;;
11135;SDS011;5622;50.840;4.948;2022-12-07T04:43:57;27.47;;;17.67;;
11135;SDS011;5622;50.840;4.948;2022-12-07T04:46:26;25.90;;;16.30;;
11135;SDS011;5622;50.840;4.948;2022-12-07T04:48:54;25.70;;;17.63;;
11135;SDS011;5622;50.840;4.948;2022-12-07T04:51:22;23.90;;;17.10;;
11135;SDS011;5622;50.840;4.948;2022-12-07T04:53:52;25.60;;;17.00;;
11135;SDS011;5622;50.840;4.948;2022-12-07T04:56:20;23.57;;;15.87;;
11135;SDS011;5622;50.840;4.948;2022-12-07T05:01:33;21.97;;;15.60;;
11135;SDS011;5622;50.840;4.948;2022-12-07T05:04:01;22.53;;;15.83;;
11135;SDS011;5622;50.840;4.948;2022-12-07T05:06:28;25.27;;;16.77;;
11135;SDS011;5622;50.840;4.948;2022-12-07T05:08:57;22.90;;;15.83;;
11135;SDS011;5622;50.840;4.948;2022-12-07T05:11:24;23.20;;;15.77;;
11135;SDS011;5622;50.840;4.948;2022-12-07T05:14:07;24.37;;;16.37;;
11135;SDS011;5622;50.840;4.948;2022-12-07T05:16:37;21.13;;;14.90;;
11135;SDS011;5622;50.840;4.948;2022-12-07T05:19:05;21.97;;;15.47;;
11135;SDS011;5622;50.840;4.948;2022-12-07T05:21:32;22.67;;;15.83;;
11135;SDS011;5622;50.840;4.948;2022-12-07T05:24:01;22.93;;;16.87;;
11135;SDS011;5622;50.840;4.948;2022-12-07T05:26:29;24.03;;;16.63;;
11135;SDS011;5622;50.840;4.948;2022-12-07T05:28:56;22.23;;;15.77;;
11135;SDS011;5622;50.840;4.948;2022-12-07T05:31:24;23.00;;;15.33;;
11135;SDS011;5622;50.840;4.948;2022-12-07T05:33:52;24.63;;;16.13;;
11135;SDS011;5622;50.840;4.948;2022-12-07T05:36:20;24.47;;;15.67;;
11135;SDS011;5622;50.840;4.948;2022-12-07T05:38:47;23.87;;;16.67;;
11135;SDS011;5622;50.840;4.948;2022-12-07T05:41:16;24.37;;;16.63;;
11135;SDS011;5622;50.840;4.948;2022-12-07T05:44:02;25.83;;;18.07;;
11135;SDS011;5622;50.840;4.948;2022-12-07T05:46:29;29.00;;;19.90;;
11135;SDS011;5622;50.840;4.948;2022-12-07T05:48:56;29.33;;;21.00;;
11135;SDS011;5622;50.840;4.948;2022-12-07T05:51:24;31.40;;;22.20;;
11135;SDS011;5622;50.840;4.948;2022-12-07T05:53:51;32.30;;;20.97;;
11135;SDS011;5622;50.840;4.948;2022-12-07T05:56:19;29.07;;;20.20;;
11135;SDS011;5622;50.840;4.948;2022-12-07T05:58:47;29.60;;;18.77;;
11135;SDS011;5622;50.840;4.948;2022-12-07T06:01:31;27.73;;;18.07;;
11135;SDS011;5622;50.840;4.948;2022-12-07T06:03:58;27.53;;;18.73;;
11135;SDS011;5622;50.840;4.948;2022-12-07T06:06:25;27.13;;;19.10;;
11135;SDS011;5622;50.840;4.948;2022-12-07T06:08:52;25.93;;;18.83;;
11135;SDS011;5622;50.840;4.948;2022-12-07T06:11:21;27.57;;;17.17;;
11135;SDS011;5622;50.840;4.948;2022-12-07T06:14:05;24.77;;;17.90;;
11135;SDS011;5622;50.840;4.948;2022-12-07T06:16:32;28.50;;;17.83;;
11135;SDS011;5622;50.840;4.948;2022-12-07T06:18:59;25.03;;;17.27;;
11135;SDS011;5622;50.840;4.948;2022-12-07T06:21:26;25.00;;;18.07;;
11135;SDS011;5622;50.840;4.948;2022-12-07T06:23:53;28.77;;;18.40;;
11135;SDS011;5622;50.840;4.948;2022-12-07T06:26:22;27.67;;;18.87;;
11135;SDS011;5622;50.840;4.948;2022-12-07T06:28:49;29.70;;;19.23;;
11135;SDS011;5622;50.840;4.948;2022-12-07T06:31:16;35.50;;;23.03;;
11135;SDS011;5622;50.840;4.948;2022-12-07T06:33:44;29.13;;;20.93;;
11135;SDS011;5622;50.840;4.948;2022-12-07T06:36:11;29.37;;;18.43;;
11135;SDS011;5622;50.840;4.948;2022-12-07T06:38:38;22.73;;;16.63;;
11135;SDS011;5622;50.840;4.948;2022-12-07T06:41:05;27.97;;;18.07;;
11135;SDS011;5622;50.840;4.948;2022-12-07T06:43:34;24.63;;;16.57;;
11135;SDS011;5622;50.840;4.948;2022-12-07T06:46:01;24.17;;;16.80;;
11135;SDS011;5622;50.840;4.948;2022-12-07T06:48:28;22.20;;;16.67;;
11135;SDS011;5622;50.840;4.948;2022-12-07T06:50:55;23.87;;;16.13;;
11135;SDS011;5622;50.840;4.948;2022-12-07T06:53:22;21.37;;;15.20;;
11135;SDS011;5622;50.840;4.948;2022-12-07T06:55:49;23.33;;;15.37;;
11135;SDS011;5622;50.840;4.948;2022-12-07T06:58:17;23.10;;;15.60;;
11135;SDS011;5622;50.840;4.948;2022-12-07T07:00:47;24.00;;;16.70;;
11135;SDS011;5622;50.840;4.948;2022-12-07T07:03:14;28.10;;;18.83;;
11135;SDS011;5622;50.840;4.948;2022-12-07T07:05:42;25.00;;;18.83;;
11135;SDS011;5622;50.840;4.948;2022-12-07T07:08:09;23.70;;;17.07;;
11135;SDS011;5622;50.840;4.948;2022-12-07T07:10:37;25.20;;;17.00;;
11135;SDS011;5622;50.840;4.948;2022-12-07T07:13:05;24.37;;;16.23;;
11135;SDS011;5622;50.840;4.948;2022-12-07T07:15:33;25.47;;;17.10;;
11135;SDS011;5622;50.840;4.948;2022-12-07T07:18:01;26.87;;;17.97;;
11135;SDS011;5622;50.840;4.948;2022-12-07T07:20:29;22.97;;;16.83;;
11135;SDS011;5622;50.840;4.948;2022-12-07T07:22:56;22.90;;;16.50;;
11135;SDS011;5622;50.840;4.948;2022-12-07T07:25:23;24.13;;;16.93;;
11135;SDS011;5622;50.840;4.948;2022-12-07T07:27:50;21.40;;;16.60;;
11135;SDS011;5622;50.840;4.948;2022-12-07T07:30:17;22.47;;;17.20;;
11135;SDS011;5622;50.840;4.948;2022-12-07T07:32:44;23.83;;;18.00;;
11135;SDS011;5622;50.840;4.948;2022-12-07T07:35:13;21.60;;;16.60;;
11135;SDS011;5622;50.840;4.948;2022-12-07T07:37:40;24.50;;;17.27;;
11135;SDS011;5622;50.840;4.948;2022-12-07T07:40:08;21.50;;;16.43;;
11135;SDS011;5622;50.840;4.948;2022-12-07T07:42:35;26.77;;;17.67;;
11135;SDS011;5622;50.840;4.948;2022-12-07T07:45:03;22.80;;;16.70;;
11135;SDS011;5622;50.840;4.948;2022-12-07T07:47:30;23.37;;;14.87;;
11135;SDS011;5622;50.840;4.948;2022-12-07T07:49:58;23.77;;;16.30;;
11135;SDS011;5622;50.840;4.948;2022-12-07T07:52:26;22.60;;;15.93;;
11135;SDS011;5622;50.840;4.948;2022-12-07T07:54:55;20.63;;;15.83;;
11135;SDS011;5622;50.840;4.948;2022-12-07T07:57:22;21.23;;;15.20;;
11135;SDS011;5622;50.840;4.948;2022-12-07T07:59:49;24.03;;;15.70;;
11135;SDS011;5622;50.840;4.948;2022-12-07T08:02:16;21.77;;;15.03;;
11135;SDS011;5622;50.840;4.948;2022-12-07T08:04:45;24.60;;;15.37;;
11135;SDS011;5622;50.840;4.948;2022-12-07T08:07:13;20.43;;;15.20;;
11135;SDS011;5622;50.840;4.948;2022-12-07T08:09:42;18.83;;;14.50;;
11135;SDS011;5622;50.840;4.948;2022-12-07T08:12:09;25.73;;;14.30;;
11135;SDS011;5622;50.840;4.948;2022-12-07T08:14:37;19.17;;;14.73;;
11135;SDS011;5622;50.840;4.948;2022-12-07T08:17:04;20.50;;;14.50;;
11135;SDS011;5622;50.840;4.948;2022-12-07T08:19:31;20.83;;;15.00;;
11135;SDS011;5622;50.840;4.948;2022-12-07T08:21:59;20.13;;;13.87;;
11135;SDS011;5622;50.840;4.948;2022-12-07T08:24:27;23.70;;;15.20;;
11135;SDS011;5622;50.840;4.948;2022-12-07T08:26:55;16.93;;;13.60;;
11135;SDS011;5622;50.840;4.948;2022-12-07T08:29:22;24.40;;;15.77;;
11135;SDS011;5622;50.840;4.948;2022-12-07T08:31:49;21.30;;;15.43;;
11135;SDS011;5622;50.840;4.948;2022-12-07T08:34:17;23.43;;;14.27;;
11135;SDS011;5622;50.840;4.948;2022-12-07T08:36:44;21.57;;;14.07;;
11135;SDS011;5622;50.840;4.948;2022-12-07T08:39:11;18.90;;;13.30;;
11135;SDS011;5622;50.840;4.948;2022-12-07T08:41:38;20.70;;;15.13;;
11135;SDS011;5622;50.840;4.948;2022-12-07T08:44:07;22.27;;;15.77;;
11135;SDS011;5622;50.840;4.948;2022-12-07T08:46:34;21.97;;;15.70;;
11135;SDS011;5622;50.840;4.948;2022-12-07T08:49:05;24.10;;;16.10;;
11135;SDS011;5622;50.840;4.948;2022-12-07T08:51:37;23.03;;;15.47;;
11135;SDS011;5622;50.840;4.948;2022-12-07T08:54:06;23.00;;;15.40;;
11135;SDS011;5622;50.840;4.948;2022-12-07T08:56:36;18.47;;;14.07;;
11135;SDS011;5622;50.840;4.948;2022-12-07T08:59:04;20.17;;;15.23;;
11135;SDS011;5622;50.840;4.948;2022-12-07T09:01:33;20.73;;;15.10;;
11135;SDS011;5622;50.840;4.948;2022-12-07T09:04:01;22.13;;;15.63;;
11135;SDS011;5622;50.840;4.948;2022-12-07T09:06:28;22.27;;;14.60;;
11135;SDS011;5622;50.840;4.948;2022-12-07T09:08:56;21.97;;;14.77;;
11135;SDS011;5622;50.840;4.948;2022-12-07T09:11:25;21.63;;;14.70;;
11135;SDS011;5622;50.840;4.948;2022-12-07T09:13:52;18.73;;;13.63;;
11135;SDS011;5622;50.840;4.948;2022-12-07T09:16:21;19.43;;;14.03;;
11135;SDS011;5622;50.840;4.948;2022-12-07T09:18:49;28.33;;;14.47;;
11135;SDS011;5622;50.840;4.948;2022-12-07T09:21:16;22.17;;;15.00;;
11135;SDS011;5622;50.840;4.948;2022-12-07T09:23:43;17.70;;;13.00;;
11135;SDS011;5622;50.840;4.948;2022-12-07T09:26:11;23.50;;;14.07;;
11135;SDS011;5622;50.840;4.948;2022-12-07T09:28:38;17.73;;;13.17;;
11135;SDS011;5622;50.840;4.948;2022-12-07T09:31:07;21.57;;;13.37;;
11135;SDS011;5622;50.840;4.948;2022-12-07T09:33:35;17.20;;;12.33;;
11135;SDS011;5622;50.840;4.948;2022-12-07T09:36:03;15.53;;;11.13;;
11135;SDS011;5622;50.840;4.948;2022-12-07T09:38:33;19.50;;;12.00;;
11135;SDS011;5622;50.840;4.948;2022-12-07T09:41:03;19.83;;;12.93;;
11135;SDS011;5622;50.840;4.948;2022-12-07T09:43:33;18.83;;;13.17;;
11135;SDS011;5622;50.840;4.948;2022-12-07T09:46:01;18.03;;;12.97;;
11135;SDS011;5622;50.840;4.948;2022-12-07T09:48:30;24.93;;;13.80;;
11135;SDS011;5622;50.840;4.948;2022-12-07T09:51:03;18.17;;;11.87;;
11135;SDS011;5622;50.840;4.948;2022-12-07T09:53:40;20.87;;;13.40;;
11135;SDS011;5622;50.840;4.948;2022-12-07T09:56:09;17.90;;;12.43;;
11135;SDS011;5622;50.840;4.948;2022-12-07T09:58:39;22.37;;;14.00;;
11135;SDS011;5622;50.840;4.948;2022-12-07T10:01:09;23.43;;;13.40;;
11135;SDS011;5622;50.840;4.948;2022-12-07T10:03:40;18.23;;;12.80;;
11135;SDS011;5622;50.840;4.948;2022-12-07T10:06:13;15.03;;;11.43;;
11135;SDS011;5622;50.840;4.948;2022-12-07T10:08:40;17.27;;;10.97;;
11135;SDS011;5622;50.840;4.948;2022-12-07T10:11:09;18.87;;;12.30;;
11135;SDS011;5622;50.840;4.948;2022-12-07T10:13:37;20.37;;;11.60;;
11135;SDS011;5622;50.840;4.948;2022-12-07T10:16:05;20.27;;;12.10;;
11135;SDS011;5622;50.840;4.948;2022-12-07T10:18:53;18.10;;;10.37;;
11135;SDS011;5622;50.840;4.948;2022-12-07T10:21:22;21.50;;;10.57;;
11135;SDS011;5622;50.840;4.948;2022-12-07T10:24:00;17.63;;;10.83;;
11135;SDS011;5622;50.840;4.948;2022-12-07T10:26:30;23.73;;;14.00;;
11135;SDS011;5622;50.840;4.948;2022-12-07T10:28:59;24.10;;;15.70;;
11135;SDS011;5622;50.840;4.948;2022-12-07T10:31:28;18.70;;;13.17;;
11135;SDS011;5622;50.840;4.948;2022-12-07T10:33:56;17.07;;;11.30;;
11135;SDS011;5622;50.840;4.948;2022-12-07T10:36:26;20.23;;;11.73;;
11135;SDS011;5622;50.840;4.948;2022-12-07T10:39:01;16.20;;;9.93;;
11135;SDS011;5622;50.840;4.948;2022-12-07T10:41:29;15.17;;;11.47;;
11135;SDS011;5622;50.840;4.948;2022-12-07T10:43:57;20.23;;;11.53;;
11135;SDS011;5622;50.840;4.948;2022-12-07T10:49:31;16.00;;;10.13;;
11135;SDS011;5622;50.840;4.948;2022-12-07T10:52:28;14.67;;;9.23;;
11135;SDS011;5622;50.840;4.948;2022-12-07T10:55:13;21.77;;;9.50;;
11135;SDS011;5622;50.840;4.948;2022-12-07T10:57:50;13.20;;;8.00;;
11135;SDS011;5622;50.840;4.948;2022-12-07T11:00:28;12.50;;;8.70;;
11135;SDS011;5622;50.840;4.948;2022-12-07T11:03:11;13.67;;;8.57;;
11135;SDS011;5622;50.840;4.948;2022-12-07T11:06:05;17.00;;;8.27;;
11135;SDS011;5622;50.840;4.948;2022-12-07T11:08:48;11.77;;;7.97;;
11135;SDS011;5622;50.840;4.948;2022-12-07T11:11:26;12.10;;;7.90;;
11135;SDS011;5622;50.840;4.948;2022-12-07T11:14:02;11.10;;;8.10;;
11135;SDS011;5622;50.840;4.948;2022-12-07T11:16:39;15.13;;;8.40;;
11135;SDS011;5622;50.840;4.948;2022-12-07T11:22:20;13.90;;;8.10;;
11135;SDS011;5622;50.840;4.948;2022-12-07T11:25:00;14.80;;;7.63;;
11135;SDS011;5622;50.840;4.948;2022-12-07T11:27:39;12.93;;;7.50;;
11135;SDS011;5622;50.840;4.948;2022-12-07T11:30:14;12.30;;;6.97;;
11135;SDS011;5622;50.840;4.948;2022-12-07T11:32:56;11.43;;;7.20;;
11135;SDS011;5622;50.840;4.948;2022-12-07T11:35:36;15.57;;;8.00;;
11135;SDS011;5622;50.840;4.948;2022-12-07T11:38:13;14.70;;;9.60;;
11135;SDS011;5622;50.840;4.948;2022-12-07T11:40:44;14.33;;;8.23;;
11135;SDS011;5622;50.840;4.948;2022-12-07T11:43:18;18.57;;;6.97;;
11135;SDS011;5622;50.840;4.948;2022-12-07T11:45:52;10.50;;;7.43;;
11135;SDS011;5622;50.840;4.948;2022-12-07T11:48:29;12.17;;;7.53;;
11135;SDS011;5622;50.840;4.948;2022-12-07T11:51:00;9.87;;;6.83;;
11135;SDS011;5622;50.840;4.948;2022-12-07T11:53:31;9.80;;;6.43;;
11135;SDS011;5622;50.840;4.948;2022-12-07T11:56:07;9.90;;;6.67;;
11135;SDS011;5622;50.840;4.948;2022-12-07T11:58:45;11.03;;;7.30;;
11135;SDS011;5622;50.840;4.948;2022-12-07T12:01:25;9.83;;;6.77;;
11135;SDS011;5622;50.840;4.948;2022-12-07T12:04:01;10.83;;;6.70;;
11135;SDS011;5622;50.840;4.948;2022-12-07T12:06:41;9.70;;;6.07;;
11135;SDS011;5622;50.840;4.948;2022-12-07T12:09:11;11.60;;;7.13;;
11135;SDS011;5622;50.840;4.948;2022-12-07T12:11:47;12.77;;;8.80;;
11135;SDS011;5622;50.840;4.948;2022-12-07T12:14:30;9.83;;;6.03;;
11135;SDS011;5622;50.840;4.948;2022-12-07T12:17:17;11.60;;;6.33;;
11135;SDS011;5622;50.840;4.948;2022-12-07T12:20:04;10.50;;;6.50;;
11135;SDS011;5622;50.840;4.948;2022-12-07T12:22:41;11.40;;;7.60;;
11135;SDS011;5622;50.840;4.948;2022-12-07T12:25:15;11.90;;;7.47;;
11135;SDS011;5622;50.840;4.948;2022-12-07T12:27:48;14.13;;;7.30;;
11135;SDS011;5622;50.840;4.948;2022-12-07T12:30:32;11.43;;;7.47;;
11135;SDS011;5622;50.840;4.948;2022-12-07T12:33:04;16.77;;;7.07;;
11135;SDS011;5622;50.840;4.948;2022-12-07T12:35:39;15.00;;;7.57;;
11135;SDS011;5622;50.840;4.948;2022-12-07T12:38:29;15.67;;;7.63;;
11135;SDS011;5622;50.840;4.948;2022-12-07T12:40:58;10.33;;;6.67;;
11135;SDS011;5622;50.840;4.948;2022-12-07T12:49:33;12.97;;;8.00;;
11135;SDS011;5622;50.840;4.948;2022-12-07T12:55:19;9.80;;;8.30;;
11135;SDS011;5622;50.840;4.948;2022-12-07T12:58:25;12.90;;;7.23;;
11135;SDS011;5622;50.840;4.948;2022-12-07T13:04:24;24.93;;;12.93;;
11135;SDS011;5622;50.840;4.948;2022-12-07T13:07:10;22.33;;;13.17;;
11135;SDS011;5622;50.840;4.948;2022-12-07T13:09:42;15.83;;;9.77;;
11135;SDS011;5622;50.840;4.948;2022-12-07T13:12:12;14.13;;;8.33;;
11135;SDS011;5622;50.840;4.948;2022-12-07T13:14:52;11.57;;;7.23;;
11135;SDS011;5622;50.840;4.948;2022-12-07T13:23:30;14.73;;;6.77;;
11135;SDS011;5622;50.840;4.948;2022-12-07T13:26:16;12.87;;;7.30;;
11135;SDS011;5622;50.840;4.948;2022-12-07T13:28:45;25.77;;;9.37;;
11135;SDS011;5622;50.840;4.948;2022-12-07T13:31:25;11.67;;;7.80;;
11135;SDS011;5622;50.840;4.948;2022-12-07T13:33:59;13.37;;;7.50;;
11135;SDS011;5622;50.840;4.948;2022-12-07T13:36:29;12.47;;;8.60;;
11135;SDS011;5622;50.840;4.948;2022-12-07T13:39:10;14.50;;;7.47;;
11135;SDS011;5622;50.840;4.948;2022-12-07T13:41:44;12.13;;;6.70;;
11135;SDS011;5622;50.840;4.948;2022-12-07T13:44:17;11.53;;;6.70;;
11135;SDS011;5622;50.840;4.948;2022-12-07T13:46:47;10.60;;;6.60;;
11135;SDS011;5622;50.840;4.948;2022-12-07T13:49:19;12.83;;;6.87;;
11135;SDS011;5622;50.840;4.948;2022-12-07T13:51:50;14.00;;;6.57;;
11135;SDS011;5622;50.840;4.948;2022-12-07T13:54:18;11.50;;;6.60;;
11135;SDS011;5622;50.840;4.948;2022-12-07T13:56:47;12.67;;;6.00;;
11135;SDS011;5622;50.840;4.948;2022-12-07T13:59:18;13.03;;;7.70;;
11135;SDS011;5622;50.840;4.948;2022-12-07T14:01:47;14.53;;;7.07;;
11135;SDS011;5622;50.840;4.948;2022-12-07T14:04:19;10.53;;;6.83;;
11135;SDS011;5622;50.840;4.948;2022-12-07T14:06:59;9.63;;;5.67;;
11135;SDS011;5622;50.840;4.948;2022-12-07T14:09:28;8.37;;;6.43;;
11135;SDS011;5622;50.840;4.948;2022-12-07T14:11:56;11.53;;;6.20;;
11135;SDS011;5622;50.840;4.948;2022-12-07T14:14:25;8.43;;;5.90;;
11135;SDS011;5622;50.840;4.948;2022-12-07T14:17:01;10.70;;;5.13;;
11135;SDS011;5622;50.840;4.948;2022-12-07T14:19:40;7.83;;;5.10;;
11135;SDS011;5622;50.840;4.948;2022-12-07T14:22:17;4.20;;;3.77;;
11135;SDS011;5622;50.840;4.948;2022-12-07T14:24:50;3.47;;;2.97;;
11135;SDS011;5622;50.840;4.948;2022-12-07T14:27:24;6.97;;;3.33;;
11135;SDS011;5622;50.840;4.948;2022-12-07T14:29:58;3.57;;;2.53;;
11135;SDS011;5622;50.840;4.948;2022-12-07T14:32:26;3.40;;;2.73;;
11135;SDS011;5622;50.840;4.948;2022-12-07T14:34:55;10.93;;;5.27;;
11135;SDS011;5622;50.840;4.948;2022-12-07T14:37:26;7.10;;;4.63;;
11135;SDS011;5622;50.840;4.948;2022-12-07T14:40:00;10.67;;;7.17;;
11135;SDS011;5622;50.840;4.948;2022-12-07T14:42:31;7.33;;;3.77;;
11135;SDS011;5622;50.840;4.948;2022-12-07T14:45:00;4.57;;;4.00;;
11135;SDS011;5622;50.840;4.948;2022-12-07T14:47:27;4.13;;;3.73;;
11135;SDS011;5622;50.840;4.948;2022-12-07T14:49:55;6.47;;;3.83;;
11135;SDS011;5622;50.840;4.948;2022-12-07T14:52:23;16.33;;;9.20;;
11135;SDS011;5622;50.840;4.948;2022-12-07T14:54:55;29.87;;;14.87;;
11135;SDS011;5622;50.840;4.948;2022-12-07T14:57:22;39.40;;;19.73;;
11135;SDS011;5622;50.840;4.948;2022-12-07T14:59:49;33.50;;;16.60;;
11135;SDS011;5622;50.840;4.948;2022-12-07T15:02:16;18.03;;;12.30;;
11135;SDS011;5622;50.840;4.948;2022-12-07T15:04:45;11.67;;;10.33;;
11135;SDS011;5622;50.840;4.948;2022-12-07T15:07:14;17.00;;;12.20;;
11135;SDS011;5622;50.840;4.948;2022-12-07T15:09:46;17.73;;;12.63;;
11135;SDS011;5622;50.840;4.948;2022-12-07T15:12:13;11.80;;;8.17;;
11135;SDS011;5622;50.840;4.948;2022-12-07T15:18:03;18.07;;;13.77;;
11135;SDS011;5622;50.840;4.948;2022-12-07T15:20:30;16.40;;;13.33;;
11135;SDS011;5622;50.840;4.948;2022-12-07T15:22:57;10.37;;;8.90;;
11135;SDS011;5622;50.840;4.948;2022-12-07T15:25:26;14.73;;;9.20;;
11135;SDS011;5622;50.840;4.948;2022-12-07T15:27:53;10.47;;;9.03;;
11135;SDS011;5622;50.840;4.948;2022-12-07T15:30:20;11.07;;;7.83;;
11135;SDS011;5622;50.840;4.948;2022-12-07T15:32:48;10.43;;;7.03;;